Time;durP1;ratioP1;P1;durP2;ratioP2;P2;SDS_P1;SDS_P2;PMS_P1;PMS_P2;Temp;Humidity;BMP_temperature;BMP_pressure;BME280_temperature;BME280_humidity;BME280_pressure;Samples;Min_cycle;Max_cycle;Signal;HPM_P1;HPM_P2
2021/03/26 00:02:27;;;;;;;125.33;54.35;;;;;;;0.28;68.95;99458.62;2173009;79;21141;-73
2021/03/26 00:05:35;;;;;;;144.62;58.42;;;;;;;0.26;68.60;99453.05;2171511;80;21134;-73
2021/03/26 00:08:37;;;;;;;279.73;107.05;;;;;;;0.24;68.67;99456.92;2193454;80;21291;-73
2021/03/26 00:11:42;;;;;;;173.53;69.67;;;;;;;0.21;68.56;99452.25;2187449;80;21709;-74
2021/03/26 00:14:44;;;;;;;208.90;84.30;;;;;;;0.14;68.77;99453.59;2186256;80;21704;-73
2021/03/26 00:17:46;;;;;;;117.15;53.78;;;;;;;0.24;69.44;99453.06;2204571;80;21311;-74
2021/03/26 00:20:48;;;;;;;155.80;63.65;;;;;;;0.32;68.93;99450.43;2188646;80;21751;-73
2021/03/26 00:23:50;;;;;;;157.00;64.77;;;;;;;0.24;68.68;99454.34;2189592;80;21320;-74
2021/03/26 00:26:54;;;;;;;154.10;65.05;;;;;;;0.21;68.54;99449.22;2197323;80;21304;-73
2021/03/26 00:29:56;;;;;;;126.67;55.70;;;;;;;0.13;68.63;99449.71;2192526;79;21386;-73
2021/03/26 00:32:58;;;;;;;167.15;66.75;;;;;;;0.08;68.85;99447.63;2191211;80;21300;-73
2021/03/26 00:36:01;;;;;;;168.50;66.80;;;;;;;0.01;68.93;99446.81;2198108;80;21154;-73
2021/03/26 00:39:03;;;;;;;196.57;77.10;;;;;;;0.02;69.11;99448.97;2186322;80;21169;-74
2021/03/26 00:42:05;;;;;;;138.60;57.13;;;;;;;0.07;69.08;99448.07;2206480;80;21295;-74
2021/03/26 00:45:10;;;;;;;125.45;53.28;;;;;;;-0.01;69.13;99444.69;2204168;80;21165;-74
2021/03/26 00:48:12;;;;;;;160.93;68.10;;;;;;;0.07;69.28;99440.75;2187199;80;21165;-73
2021/03/26 00:51:14;;;;;;;148.40;64.10;;;;;;;0.11;69.30;99439.86;2200422;79;21621;-73
2021/03/26 00:54:18;;;;;;;133.40;57.98;;;;;;;0.04;69.16;99444.20;2198192;80;21347;-73
2021/03/26 00:57:20;;;;;;;154.82;65.78;;;;;;;-0.02;69.67;99439.94;2188747;79;21744;-73
2021/03/26 01:00:26;;;;;;;145.15;60.58;;;;;;;-0.01;69.73;99442.11;2183207;80;21720;-72
2021/03/26 01:03:28;;;;;;;142.87;60.70;;;;;;;-0.04;69.31;99437.83;2203074;79;21739;-74
2021/03/26 01:06:30;;;;;;;139.77;59.65;;;;;;;-0.14;69.26;99432.33;2196578;80;21126;-73
2021/03/26 01:09:32;;;;;;;149.27;61.13;;;;;;;-0.20;69.83;99440.95;2202675;80;21747;-74
2021/03/26 01:12:34;;;;;;;173.17;67.22;;;;;;;-0.16;69.81;99437.06;2196288;80;21775;-74
2021/03/26 01:15:36;;;;;;;137.22;59.13;;;;;;;-0.10;69.62;99435.30;2188805;80;21737;-74
2021/03/26 01:18:42;;;;;;;159.43;66.28;;;;;;;-0.06;69.69;99438.28;2194708;79;21281;-74
2021/03/26 01:21:44;;;;;;;153.53;61.20;;;;;;;-0.07;69.58;99446.88;2203245;80;21315;-73
2021/03/26 01:24:47;;;;;;;136.15;59.13;;;;;;;-0.15;69.75;99446.08;2205989;80;21300;-73
2021/03/26 01:27:49;;;;;;;171.13;70.42;;;;;;;-0.19;69.92;99441.39;2194022;80;21308;-72
2021/03/26 01:30:51;;;;;;;161.65;67.35;;;;;;;-0.21;70.12;99443.55;2193371;80;21636;-73
2021/03/26 01:33:53;;;;;;;157.10;63.85;;;;;;;-0.19;70.12;99448.25;2188798;80;21319;-73
2021/03/26 01:36:56;;;;;;;141.62;60.03;;;;;;;-0.19;70.20;99439.23;2186096;80;21595;-73
2021/03/26 01:39:58;;;;;;;126.30;56.30;;;;;;;-0.16;70.23;99446.09;2163967;80;21213;-74
2021/03/26 01:43:00;;;;;;;119.02;53.70;;;;;;;-0.14;70.05;99443.93;2183548;80;21295;-74
2021/03/26 01:46:02;;;;;;;114.05;50.30;;;;;;;-0.14;69.95;99445.22;2184151;80;21296;-73
2021/03/26 01:49:04;;;;;;;123.80;54.05;;;;;;;-0.12;69.97;99439.60;2203533;80;21732;-73
2021/03/26 01:52:06;;;;;;;117.72;49.50;;;;;;;-0.06;70.11;99437.41;2204990;79;21332;-74
2021/03/26 01:55:10;;;;;;;178.93;79.03;;;;;;;-0.08;69.78;99443.88;2191624;79;21158;-74
2021/03/26 01:58:12;;;;;;;127.45;54.95;;;;;;;-0.15;70.03;99446.52;2183049;80;21363;-73
2021/03/26 02:01:14;;;;;;;115.00;50.73;;;;;;;-0.17;70.11;99441.38;2181624;80;21296;-74
2021/03/26 02:04:16;;;;;;;113.37;51.80;;;;;;;-0.18;70.03;99442.23;2197490;80;21292;-73
2021/03/26 02:07:19;;;;;;;120.10;51.45;;;;;;;-0.19;70.05;99436.64;2195985;80;21299;-73
2021/03/26 02:10:21;;;;;;;123.95;53.63;;;;;;;-0.20;70.10;99441.41;2190560;79;21292;-73
2021/03/26 02:13:23;;;;;;;115.15;53.95;;;;;;;-0.18;70.57;99444.37;2195227;80;21125;-74
2021/03/26 02:16:25;;;;;;;126.42;56.18;;;;;;;-0.17;70.20;99445.25;2197058;79;21746;-74
2021/03/26 02:19:27;;;;;;;121.37;55.45;;;;;;;-0.18;70.12;99444.37;2187065;79;21126;-73
2021/03/26 02:22:29;;;;;;;130.27;54.18;;;;;;;-0.21;70.13;99448.70;2201093;79;21363;-73
2021/03/26 02:25:31;;;;;;;142.30;60.00;;;;;;;-0.23;70.20;99442.69;2198230;80;21280;-73
2021/03/26 02:28:33;;;;;;;114.00;50.60;;;;;;;-0.22;70.16;99444.41;2206163;80;21165;-73
2021/03/26 02:31:37;;;;;;;122.30;54.20;;;;;;;-0.27;70.44;99440.58;2195233;80;21283;-73
2021/03/26 02:34:39;;;;;;;124.10;53.20;;;;;;;-0.29;70.84;99439.72;2190271;79;21272;-73
2021/03/26 02:37:42;;;;;;;114.95;50.98;;;;;;;-0.39;70.63;99441.53;2188478;80;21396;-73
2021/03/26 02:40:46;;;;;;;136.90;56.92;;;;;;;-0.42;70.61;99443.26;2185651;80;21295;-73
2021/03/26 02:43:48;;;;;;;129.87;57.73;;;;;;;-0.40;70.79;99442.83;2197263;80;21304;-74
2021/03/26 02:46:50;;;;;;;119.00;54.18;;;;;;;-0.31;70.88;99440.17;2192937;80;21299;-73
2021/03/26 02:49:52;;;;;;;155.48;62.65;;;;;;;-0.27;70.81;99443.61;2195898;79;21322;-73
2021/03/26 02:52:54;;;;;;;170.47;63.13;;;;;;;-0.29;71.14;99447.90;2192937;80;21731;-74
2021/03/26 02:55:56;;;;;;;136.22;57.13;;;;;;;-0.30;71.25;99450.92;2191665;80;21162;-73
2021/03/26 02:58:58;;;;;;;148.17;58.70;;;;;;;-0.29;70.74;99450.48;2196114;79;21292;-74
2021/03/26 03:02:00;;;;;;;142.68;58.05;;;;;;;-0.38;70.71;99443.66;2192077;80;21360;-74
2021/03/26 03:05:02;;;;;;;145.22;60.43;;;;;;;-0.39;70.77;99449.67;2188392;80;21268;-74
2021/03/26 03:08:04;;;;;;;127.60;57.38;;;;;;;-0.45;71.02;99447.98;2173332;80;21141;-73
2021/03/26 03:11:07;;;;;;;126.12;54.55;;;;;;;-0.55;71.07;99449.80;2196380;80;21694;-73
2021/03/26 03:14:11;;;;;;;131.57;55.00;;;;;;;-0.51;71.29;99446.75;2193629;80;21740;-73
2021/03/26 03:17:13;;;;;;;133.10;58.73;;;;;;;-0.46;71.41;99450.58;2203051;80;21327;-74
2021/03/26 03:20:15;;;;;;;145.68;61.48;;;;;;;-0.44;71.45;99452.73;2186274;80;21858;-74
2021/03/26 03:23:17;;;;;;;149.75;65.92;;;;;;;-0.31;71.47;99455.64;2186824;80;21748;-73
2021/03/26 03:26:19;;;;;;;163.03;70.65;;;;;;;-0.31;71.31;99456.09;2190747;80;21736;-74
2021/03/26 03:29:21;;;;;;;171.10;72.20;;;;;;;-0.34;71.49;99449.23;2193892;79;21760;-74
2021/03/26 03:32:23;;;;;;;159.97;68.83;;;;;;;-0.36;71.48;99452.23;2199019;80;21305;-73
2021/03/26 03:35:25;;;;;;;226.05;86.20;;;;;;;-0.38;71.49;99454.82;2202154;80;21300;-74
2021/03/26 03:38:27;;;;;;;110.40;50.10;;;;;;;-0.41;71.78;99457.42;2208558;80;21302;-74
2021/03/26 03:41:29;;;;;;;125.62;53.48;;;;;;;-0.46;71.70;99460.48;2184361;80;21646;-74
2021/03/26 03:44:31;;;;;;;121.47;52.30;;;;;;;-0.51;71.95;99463.50;2179479;80;21288;-74
2021/03/26 03:47:33;;;;;;;128.25;55.98;;;;;;;-0.46;71.95;99463.05;2180269;80;21759;-73
2021/03/26 03:50:35;;;;;;;123.15;53.02;;;;;;;-0.51;71.90;99471.23;2177161;80;21332;-74
2021/03/26 03:53:37;;;;;;;130.00;57.43;;;;;;;-0.54;72.44;99476.41;2189577;80;21811;-74
2021/03/26 03:56:39;;;;;;;124.42;52.90;;;;;;;-0.47;72.23;99475.51;2186142;80;21751;-74
2021/03/26 03:59:41;;;;;;;125.20;56.90;;;;;;;-0.44;71.88;99469.05;2183892;80;21307;-74
2021/03/26 04:02:43;;;;;;;133.22;61.53;;;;;;;-0.42;71.70;99468.59;2195080;80;21601;-73
2021/03/26 04:05:45;;;;;;;125.70;56.50;;;;;;;-0.27;71.70;99475.39;2184241;80;21299;-74
2021/03/26 04:08:47;;;;;;;123.33;53.48;;;;;;;-0.32;71.40;99468.10;2189136;80;21311;-74
2021/03/26 04:11:49;;;;;;;119.62;53.25;;;;;;;-0.41;71.07;99482.36;2200768;80;21324;-73
2021/03/26 04:14:51;;;;;;;117.40;51.90;;;;;;;-0.47;71.64;99488.84;2182585;80;21279;-74
2021/03/26 04:17:53;;;;;;;121.42;53.52;;;;;;;-0.42;71.72;99476.77;2196753;80;21329;-74
2021/03/26 04:20:55;;;;;;;125.90;52.20;;;;;;;-0.43;71.17;99487.52;2190927;79;21300;-73
2021/03/26 04:23:57;;;;;;;127.50;57.05;;;;;;;-0.53;71.05;99488.44;2195358;80;21297;-73
2021/03/26 04:27:00;;;;;;;126.05;56.18;;;;;;;-0.62;71.33;99494.91;2185321;80;21640;-73
2021/03/26 04:30:02;;;;;;;119.42;55.65;;;;;;;-0.65;71.65;99486.76;2188494;80;21728;-74
2021/03/26 04:33:04;;;;;;;116.42;51.73;;;;;;;-0.69;71.51;99483.77;2194531;80;21759;-73
2021/03/26 04:36:06;;;;;;;117.80;50.35;;;;;;;-0.72;71.67;99481.21;2206680;81;21713;-74
2021/03/26 04:39:08;;;;;;;120.70;52.78;;;;;;;-0.72;71.75;99484.66;2186396;80;21753;-74
2021/03/26 04:42:10;;;;;;;116.28;53.20;;;;;;;-0.68;72.17;99484.64;2194144;80;21700;-74
2021/03/26 04:45:12;;;;;;;124.80;54.30;;;;;;;-0.68;72.25;99484.20;2193627;80;21284;-73
2021/03/26 04:48:15;;;;;;;129.65;58.92;;;;;;;-0.64;72.20;99476.88;2155006;81;21276;-74
2021/03/26 04:51:17;;;;;;;123.87;57.00;;;;;;;-0.54;71.96;99475.97;2181211;80;21621;-74
2021/03/26 04:54:19;;;;;;;134.63;62.10;;;;;;;-0.46;72.09;99484.09;2189130;80;21316;-73
2021/03/26 04:57:21;;;;;;;125.25;56.68;;;;;;;-0.44;72.34;99481.09;2177307;80;21162;-73
2021/03/26 05:00:23;;;;;;;138.37;56.13;;;;;;;-0.31;72.54;99481.88;2181743;80;21283;-73
2021/03/26 05:03:25;;;;;;;144.55;62.85;;;;;;;-0.16;72.08;99486.91;2205336;80;21280;-73
2021/03/26 05:06:27;;;;;;;131.75;59.85;;;;;;;-0.09;71.88;99487.28;2201979;79;21276;-73
2021/03/26 05:09:29;;;;;;;123.42;56.77;;;;;;;-0.08;72.18;99496.74;2177089;80;21299;-73
2021/03/26 05:12:31;;;;;;;139.70;64.70;;;;;;;0.00;72.28;99496.70;2190000;80;21332;-74
2021/03/26 05:15:33;;;;;;;140.97;67.97;;;;;;;0.10;72.19;99502.22;2180894;80;21323;-74
2021/03/26 05:18:35;;;;;;;138.80;63.38;;;;;;;0.19;71.66;99500.41;2195693;80;21296;-73
2021/03/26 05:21:37;;;;;;;143.00;61.68;;;;;;;0.16;71.51;99509.05;2191175;81;21721;-73
2021/03/26 05:24:39;;;;;;;139.82;60.80;;;;;;;0.26;71.69;99504.65;2197687;79;21295;-73
2021/03/26 05:27:41;;;;;;;140.32;62.48;;;;;;;0.49;71.67;99510.94;2182919;81;21300;-73
2021/03/26 05:30:43;;;;;;;138.32;63.45;;;;;;;0.65;71.69;99508.61;2180221;80;21300;-73
2021/03/26 05:33:45;;;;;;;;;;;;;;;0.83;71.45;99508.00;2196070;80;21275;-73
2021/03/26 05:36:48;;;;;;;150.17;67.87;;;;;;;1.01;71.31;99512.97;2192149;80;20250;-72
2021/03/26 05:39:50;;;;;;;142.70;67.82;;;;;;;1.22;71.22;99505.84;2183450;80;21276;-73
2021/03/26 05:42:52;;;;;;;140.15;67.95;;;;;;;1.34;70.81;99504.41;2194440;80;21288;-73
2021/03/26 05:45:54;;;;;;;169.85;77.15;;;;;;;1.41;70.90;99503.91;2184139;80;21295;-73
2021/03/26 05:48:56;;;;;;;178.62;78.05;;;;;;;1.63;70.92;99497.99;2196252;80;21287;-73
2021/03/26 05:51:58;;;;;;;199.15;82.97;;;;;;;1.65;71.03;99501.85;2206101;80;21296;-73
2021/03/26 05:55:00;;;;;;;180.57;76.87;;;;;;;1.83;71.07;99503.34;2199185;80;21300;-73
2021/03/26 05:58:02;;;;;;;139.03;62.17;;;;;;;2.02;70.96;99502.61;2189774;80;21331;-72
2021/03/26 06:01:04;;;;;;;151.37;66.50;;;;;;;2.18;70.91;99509.25;2194766;78;21287;-73
2021/03/26 06:04:06;;;;;;;176.53;75.95;;;;;;;2.34;70.83;99509.88;2186386;79;21280;-72
2021/03/26 06:07:09;;;;;;;168.93;75.08;;;;;;;2.49;70.75;99506.17;2197929;80;21771;-72
2021/03/26 06:10:12;;;;;;;170.92;73.60;;;;;;;2.71;70.78;99510.52;2193919;80;21157;-72
2021/03/26 06:13:14;;;;;;;154.72;71.62;;;;;;;2.98;70.50;99510.06;2206136;80;21319;-72
2021/03/26 06:16:16;;;;;;;146.28;68.35;;;;;;;3.18;70.32;99508.38;2206468;79;21323;-72
2021/03/26 06:19:18;;;;;;;135.28;67.32;;;;;;;3.39;70.53;99504.05;2196219;80;21303;-72
2021/03/26 06:22:20;;;;;;;137.00;67.00;;;;;;;3.67;70.33;99503.45;2173222;80;21382;-72
2021/03/26 06:25:22;;;;;;;136.82;67.72;;;;;;;3.89;70.00;99500.38;2188032;80;21305;-72
2021/03/26 06:28:24;;;;;;;139.18;66.12;;;;;;;4.04;69.52;99509.11;2197512;80;21363;-72
2021/03/26 06:31:26;;;;;;;144.50;68.70;;;;;;;4.21;69.44;99507.84;2184336;80;21720;-72
2021/03/26 06:34:28;;;;;;;137.75;67.67;;;;;;;4.46;69.31;99506.81;2195587;80;21732;-72
2021/03/26 06:37:30;;;;;;;134.20;67.27;;;;;;;4.79;69.02;99505.08;2194121;80;21716;-72
2021/03/26 06:40:33;;;;;;;136.15;67.82;;;;;;;5.11;68.60;99515.05;2178945;80;21732;-72
2021/03/26 06:43:35;;;;;;;131.45;67.15;;;;;;;5.42;68.17;99517.27;2195036;80;21732;-72
2021/03/26 06:46:37;;;;;;;137.97;68.87;;;;;;;5.66;67.47;99508.73;2175260;80;21733;-72
2021/03/26 06:49:45;;;;;;;134.93;69.40;;;;;;;5.86;67.78;99503.34;2185161;80;21303;-72
2021/03/26 06:52:45;;;;;;;135.28;68.62;;;;;;;6.18;67.61;99513.26;2190094;80;21299;-72
2021/03/26 06:55:47;;;;;;;134.80;68.42;;;;;;;6.47;67.13;99506.24;2185058;80;21628;-72
2021/03/26 06:58:49;;;;;;;133.22;68.45;;;;;;;6.79;67.06;99512.11;2208941;80;21288;-72
2021/03/26 07:01:51;;;;;;;134.57;69.25;;;;;;;7.01;66.46;99516.98;2189150;80;21296;-72
2021/03/26 07:04:53;;;;;;;138.28;71.07;;;;;;;7.24;66.25;99522.69;2186383;80;21319;-72
2021/03/26 07:07:55;;;;;;;129.32;68.75;;;;;;;7.59;65.67;99520.52;2178103;80;21281;-72
2021/03/26 07:10:57;;;;;;;135.18;70.37;;;;;;;7.85;64.65;99521.75;2194592;80;21363;-71
2021/03/26 07:13:59;;;;;;;136.57;72.50;;;;;;;8.09;64.38;99526.02;2185319;80;21280;-72
2021/03/26 07:17:01;;;;;;;145.00;79.97;;;;;;;8.23;63.98;99534.63;2190107;80;21648;-71
2021/03/26 07:20:03;;;;;;;146.25;74.58;;;;;;;8.26;63.82;99533.63;2177268;80;21716;-71
2021/03/26 07:23:05;;;;;;;151.72;78.25;;;;;;;8.49;64.12;99534.89;2192522;80;21279;-71
2021/03/26 07:26:07;;;;;;;152.40;81.17;;;;;;;8.65;64.57;99537.72;2197285;80;21280;-71
2021/03/26 07:29:28;;;;;;;153.23;83.07;;;;;;;8.96;63.57;99531.17;2202784;80;21158;-72
2021/03/26 07:32:30;;;;;;;152.87;80.95;;;;;;;9.16;63.63;99535.54;2214178;79;21283;-71
2021/03/26 07:35:32;;;;;;;146.62;81.05;;;;;;;9.64;63.32;99541.29;2192239;80;21280;-71
2021/03/26 07:38:34;;;;;;;153.95;84.42;;;;;;;9.93;62.45;99538.22;2196478;80;21285;-71
2021/03/26 07:41:36;;;;;;;135.00;74.95;;;;;;;10.13;62.22;99535.96;2185062;80;21292;-72
2021/03/26 07:44:38;;;;;;;136.75;75.35;;;;;;;10.42;62.36;99531.98;2198153;80;21319;-71
2021/03/26 07:47:40;;;;;;;133.82;72.97;;;;;;;10.73;61.04;99527.81;2188296;80;21300;-71
2021/03/26 07:50:42;;;;;;;123.67;67.53;;;;;;;11.04;61.50;99524.47;2151896;80;21302;-71
2021/03/26 07:53:44;;;;;;;115.92;65.12;;;;;;;11.45;60.83;99523.25;2202441;80;21707;-72
2021/03/26 07:56:49;;;;;;;113.85;64.97;;;;;;;11.77;60.01;99524.59;2179978;80;21707;-71
2021/03/26 07:59:50;;;;;;;115.35;63.65;;;;;;;11.94;59.56;99521.06;2194883;80;21297;-71
2021/03/26 08:02:52;;;;;;;116.08;62.03;;;;;;;12.24;58.71;99521.57;2187815;80;21308;-72
2021/03/26 08:05:54;;;;;;;109.70;59.90;;;;;;;12.47;58.22;99517.17;2186032;80;21280;-71
2021/03/26 08:08:57;;;;;;;98.35;54.10;;;;;;;12.70;58.27;99517.62;2178919;80;21729;-71
2021/03/26 08:11:59;;;;;;;;;;;;;;;12.97;57.46;99515.14;2202127;80;21166;-72
2021/03/26 08:15:02;;;;;;;95.90;53.40;;;;;;;13.20;57.27;99515.98;2189013;80;20238;-72
2021/03/26 08:18:05;;;;;;;86.28;50.28;;;;;;;13.46;56.95;99523.63;2194721;80;21712;-71
2021/03/26 08:21:10;;;;;;;93.40;51.45;;;;;;;13.85;56.62;99529.53;2191077;80;21328;-72
2021/03/26 08:24:14;;;;;;;81.05;46.05;;;;;;;14.09;56.01;99532.84;2195587;80;21186;-71
2021/03/26 08:27:30;;;;;;;80.50;46.75;;;;;;;14.31;54.62;99531.00;2204337;80;21149;-72
2021/03/26 08:30:32;;;;;;;76.62;43.70;;;;;;;14.54;55.10;99528.16;2200322;80;21287;-71
2021/03/26 08:33:34;;;;;;;82.40;46.42;;;;;;;14.87;53.46;99532.66;2188390;80;21327;-72
2021/03/26 08:36:36;;;;;;;72.75;41.55;;;;;;;15.17;53.33;99546.02;2188514;80;21283;-72
2021/03/26 08:39:38;;;;;;;80.25;45.33;;;;;;;15.47;52.29;99541.72;2204367;80;21283;-72
2021/03/26 08:42:40;;;;;;;84.72;47.65;;;;;;;15.48;52.30;99539.95;2191556;80;21323;-72
2021/03/26 08:45:42;;;;;;;65.65;38.40;;;;;;;15.50;51.66;99539.34;2203995;80;21122;-72
2021/03/26 08:48:44;;;;;;;67.37;39.53;;;;;;;15.52;51.07;99544.07;2205323;80;21381;-72
2021/03/26 08:51:47;;;;;;;73.37;43.05;;;;;;;15.49;50.27;99546.45;2213407;79;21287;-71
2021/03/26 08:54:49;;;;;;;61.48;34.55;;;;;;;15.44;50.75;99543.27;2181881;80;21292;-72
2021/03/26 08:57:51;;;;;;;69.77;38.88;;;;;;;15.33;48.22;99542.70;2187241;80;21386;-72
2021/03/26 09:00:53;;;;;;;72.10;42.38;;;;;;;15.11;49.64;99546.45;2211535;80;21519;-71
2021/03/26 09:03:54;;;;;;;66.42;39.98;;;;;;;15.11;50.41;99547.28;2180103;80;21276;-71
2021/03/26 09:06:57;;;;;;;64.03;35.65;;;;;;;15.08;49.56;99548.82;2196218;80;21133;-71
2021/03/26 09:10:00;;;;;;;66.92;36.55;;;;;;;15.11;47.96;99551.73;2190039;80;21304;-72
2021/03/26 09:13:02;;;;;;;67.60;38.73;;;;;;;14.99;47.60;99557.39;2184637;80;21763;-71
2021/03/26 09:16:04;;;;;;;69.35;39.23;;;;;;;15.02;48.84;99561.97;2184165;80;21776;-71
2021/03/26 09:19:06;;;;;;;69.55;41.33;;;;;;;14.99;48.95;99558.70;2188368;80;21736;-71
2021/03/26 09:22:08;;;;;;;67.92;36.68;;;;;;;14.95;48.90;99561.18;2205348;80;21284;-71
2021/03/26 09:25:10;;;;;;;70.62;40.08;;;;;;;14.83;48.35;99568.97;2198856;80;21293;-71
2021/03/26 09:28:12;;;;;;;67.32;39.75;;;;;;;14.60;48.32;99567.83;2206370;79;21279;-72
2021/03/26 09:31:14;;;;;;;63.65;36.05;;;;;;;14.48;48.83;99569.49;2192265;80;21355;-72
2021/03/26 09:34:16;;;;;;;65.03;35.38;;;;;;;14.41;47.27;99569.97;2184099;80;21625;-72
2021/03/26 09:37:18;;;;;;;60.40;32.28;;;;;;;14.20;47.60;99560.70;2200385;80;21727;-72
2021/03/26 09:40:21;;;;;;;61.60;31.82;;;;;;;14.07;47.54;99562.93;2194755;79;21736;-72
2021/03/26 09:43:24;;;;;;;59.35;30.48;;;;;;;13.93;47.41;99563.80;2180203;80;21716;-72
2021/03/26 09:46:26;;;;;;;57.40;29.72;;;;;;;13.89;46.23;99563.12;2195975;80;21323;-71
2021/03/26 09:49:28;;;;;;;55.38;31.50;;;;;;;13.77;47.14;99564.75;2195639;80;21296;-72
2021/03/26 09:52:31;;;;;;;58.60;32.42;;;;;;;13.64;46.83;99562.52;2206251;80;21283;-72
2021/03/26 09:55:33;;;;;;;;;;;;;;;13.60;47.66;99563.16;2196465;80;21275;-72
2021/03/26 09:58:36;;;;;;;56.67;30.87;;;;;;;13.58;47.81;99568.17;2198783;80;20276;-72
2021/03/26 10:01:38;;;;;;;60.60;32.38;;;;;;;13.45;46.73;99559.69;2189750;80;21559;-72
2021/03/26 10:04:40;;;;;;;66.40;35.80;;;;;;;13.34;47.12;99564.28;2206370;80;21605;-72
2021/03/26 10:07:45;;;;;;;66.85;35.17;;;;;;;13.34;47.54;99563.41;2202338;80;21304;-72
2021/03/26 10:10:46;;;;;;;61.05;33.83;;;;;;;13.28;47.62;99566.43;2188497;79;21292;-72
2021/03/26 10:13:49;;;;;;;63.40;34.05;;;;;;;13.17;46.98;99565.74;2191145;79;21312;-72
2021/03/26 10:16:51;;;;;;;67.10;34.95;;;;;;;13.12;47.63;99568.66;2194411;80;21279;-72
2021/03/26 10:19:53;;;;;;;64.30;35.40;;;;;;;13.10;47.75;99567.05;2190738;80;21354;-72
2021/03/26 10:22:55;;;;;;;63.83;34.15;;;;;;;13.07;47.00;99569.88;2180255;80;21712;-72
2021/03/26 10:25:58;;;;;;;65.45;35.33;;;;;;;12.97;47.74;99571.75;2208432;80;21751;-72
2021/03/26 10:29:00;;;;;;;65.40;34.80;;;;;;;13.02;47.83;99568.84;2188441;80;21162;-72
2021/03/26 10:32:02;;;;;;;66.15;36.30;;;;;;;13.03;47.79;99568.35;2206544;80;21288;-72
2021/03/26 10:35:04;;;;;;;69.67;35.40;;;;;;;13.07;47.43;99564.60;2197751;80;21304;-72
2021/03/26 10:38:06;;;;;;;73.25;35.98;;;;;;;13.00;47.44;99564.11;2180562;80;21308;-72
2021/03/26 10:41:08;;;;;;;71.45;38.08;;;;;;;13.00;47.72;99564.11;2190662;80;21280;-72
2021/03/26 10:44:10;;;;;;;70.57;37.90;;;;;;;13.06;47.90;99562.45;2202413;80;21288;-72
2021/03/26 10:47:12;;;;;;;68.30;35.68;;;;;;;13.14;48.17;99564.61;2204442;80;21296;-72
2021/03/26 10:50:14;;;;;;;73.37;37.35;;;;;;;13.30;47.81;99561.91;2207995;80;21276;-72
2021/03/26 10:53:16;;;;;;;;;;;;;;;13.53;47.39;99562.33;2191378;80;21418;-72
2021/03/26 10:56:18;;;;;;;68.07;38.02;;;;;;;13.71;47.53;99555.91;2190800;80;20169;-72
2021/03/26 10:59:20;;;;;;;69.03;37.80;;;;;;;14.00;47.68;99551.43;2198043;80;21307;-72
2021/03/26 11:02:22;;;;;;;72.15;39.58;;;;;;;14.38;47.22;99549.45;2193854;80;21697;-72
2021/03/26 11:05:24;;;;;;;64.07;35.85;;;;;;;14.70;46.45;99546.98;2175240;80;21727;-72
2021/03/26 11:08:26;;;;;;;66.72;36.28;;;;;;;14.93;46.28;99538.83;2179393;80;21279;-72
2021/03/26 11:11:29;;;;;;;58.92;33.13;;;;;;;15.10;46.13;99539.47;2182975;80;21751;-72
2021/03/26 11:14:31;;;;;;;60.33;31.30;;;;;;;15.29;44.93;99541.22;2179439;80;21458;-72
2021/03/26 11:17:33;;;;;;;64.70;35.35;;;;;;;15.45;43.83;99527.78;2191667;80;21741;-72
2021/03/26 11:20:35;;;;;;;63.68;35.25;;;;;;;15.52;44.31;99529.04;2197782;80;21304;-72
2021/03/26 11:23:38;;;;;;;59.10;32.03;;;;;;;15.72;44.53;99533.41;2194446;79;21277;-72
2021/03/26 11:26:42;;;;;;;58.60;32.50;;;;;;;15.89;43.36;99534.89;2189211;80;21590;-72
2021/03/26 11:29:44;;;;;;;50.83;27.32;;;;;;;16.07;43.11;99530.05;2198678;80;21361;-72
2021/03/26 11:32:46;;;;;;;53.68;28.05;;;;;;;16.17;42.03;99518.32;2189673;79;21748;-72
2021/03/26 11:35:48;;;;;;;55.30;29.87;;;;;;;16.26;40.56;99518.49;2201965;79;21299;-72
2021/03/26 11:38:50;;;;;;;56.05;29.37;;;;;;;16.40;41.61;99516.13;2195002;80;21292;-72
2021/03/26 11:41:53;;;;;;;54.05;26.93;;;;;;;16.61;41.53;99511.04;2166661;80;21348;-72
2021/03/26 11:44:55;;;;;;;49.50;26.82;;;;;;;16.76;40.25;99505.05;2190698;80;21283;-72
2021/03/26 11:47:57;;;;;;;50.25;27.58;;;;;;;16.81;39.54;99507.38;2191523;80;21292;-72
2021/03/26 11:50:59;;;;;;;53.70;28.52;;;;;;;16.84;40.07;99503.16;2202626;80;21743;-72
2021/03/26 11:54:01;;;;;;;56.02;32.13;;;;;;;16.84;39.60;99505.81;2193519;80;21371;-72
2021/03/26 11:57:03;;;;;;;57.23;30.25;;;;;;;16.66;39.09;99505.87;2188401;80;21755;-72
2021/03/26 12:00:05;;;;;;;53.68;29.95;;;;;;;16.60;39.76;99505.37;2195853;80;21727;-72
2021/03/26 12:03:07;;;;;;;54.95;30.15;;;;;;;16.72;40.29;99502.76;2194921;80;21288;-72
2021/03/26 12:06:09;;;;;;;52.30;28.15;;;;;;;16.87;40.11;99494.97;2177819;80;21292;-72
2021/03/26 12:09:11;;;;;;;56.02;31.45;;;;;;;16.88;39.65;99498.03;2188103;79;21280;-72
2021/03/26 12:12:13;;;;;;;52.88;29.67;;;;;;;16.84;39.43;99491.70;2203858;80;21280;-72
2021/03/26 12:15:15;;;;;;;55.83;30.68;;;;;;;16.85;39.46;99490.75;2196389;80;21607;-72
2021/03/26 12:18:18;;;;;;;53.95;28.57;;;;;;;16.91;36.87;99475.27;2190018;80;21708;-72
2021/03/26 12:21:20;;;;;;;54.38;28.87;;;;;;;17.09;38.52;99481.42;2197733;80;21277;-72
2021/03/26 12:24:22;;;;;;;50.30;27.62;;;;;;;17.46;38.12;99475.39;2185433;80;21296;-72
2021/03/26 12:27:24;;;;;;;49.95;28.40;;;;;;;17.66;38.45;99463.69;2203292;80;21300;-72
2021/03/26 12:30:28;;;;;;;;;;;;;;;17.99;37.58;99461.95;2197086;79;21590;-72
2021/03/26 12:33:30;;;;;;;47.27;27.22;;;;;;;18.16;37.56;99456.59;2212641;80;20246;-72
2021/03/26 12:36:32;;;;;;;52.08;30.30;;;;;;;18.10;37.48;99456.61;2195632;79;21302;-72
2021/03/26 12:39:34;;;;;;;;;;;;;;;18.00;35.81;99443.70;2191579;80;21291;-72
2021/03/26 12:42:36;;;;;;;51.02;27.45;;;;;;;17.74;36.74;99458.62;2204360;80;20125;-72
2021/03/26 12:45:39;;;;;;;51.90;27.77;;;;;;;17.57;37.47;99443.19;2192142;80;21708;-72
2021/03/26 12:48:41;;;;;;;51.73;28.15;;;;;;;17.61;37.10;99444.63;2191951;80;21315;-73
2021/03/26 12:51:43;;;;;;;49.55;27.58;;;;;;;17.62;37.31;99442.34;2194989;79;21289;-72
2021/03/26 12:54:46;;;;;;;47.67;27.00;;;;;;;17.63;37.09;99441.39;2200063;80;21312;-72
2021/03/26 12:57:48;;;;;;;48.55;26.00;;;;;;;17.63;36.98;99440.90;2201837;79;21737;-72
2021/03/26 13:00:50;;;;;;;;;;;;;;;17.75;36.66;99435.57;2202433;80;21158;-72
2021/03/26 13:03:52;;;;;;;52.03;27.20;;;;;;;18.18;36.48;99424.94;2195421;80;20226;-72
2021/03/26 13:06:54;;;;;;;48.40;26.33;;;;;;;18.51;36.57;99428.89;2166372;80;21295;-72
2021/03/26 13:09:56;;;;;;;51.02;27.30;;;;;;;18.69;35.60;99429.98;2185424;80;21609;-72
2021/03/26 13:12:58;;;;;;;;;;;;;;;18.85;36.50;99426.84;2192240;80;21151;-72
2021/03/26 13:16:00;;;;;;;45.40;25.85;;;;;;;19.28;35.83;99422.78;2188038;80;20161;-72
2021/03/26 13:19:02;;;;;;;48.25;26.45;;;;;;;19.66;35.66;99411.90;2191180;80;21760;-73
2021/03/26 13:22:05;;;;;;;47.13;25.57;;;;;;;19.74;34.69;99420.05;2196577;80;22578;-72
2021/03/26 13:25:07;;;;;;;;;;;;;;;19.92;34.33;99411.41;2202554;80;21173;-72
2021/03/26 13:28:09;;;;;;;51.30;27.67;;;;;;;19.91;34.05;99406.55;2202813;80;20235;-72
2021/03/26 13:31:11;;;;;;;47.38;26.48;;;;;;;19.94;33.75;99409.42;2189502;80;21743;-73
2021/03/26 13:34:13;;;;;;;48.13;27.27;;;;;;;19.77;34.55;99394.95;2203021;80;21229;-73
2021/03/26 13:37:16;;;;;;;48.80;28.07;;;;;;;19.90;34.14;99411.04;2195512;79;21279;-73
2021/03/26 13:40:18;;;;;;;;;;;;;;;19.90;34.14;99411.04;2193878;80;21154;-72
2021/03/26 13:43:21;;;;;;;;;;;;;;;19.84;32.05;99399.63;2187373;80;20224;-72
2021/03/26 13:46:24;;;;;;;49.38;27.87;;;;;;;19.76;33.90;99406.59;2163056;81;20527;-73
2021/03/26 13:49:26;;;;;;;53.58;28.85;;;;;;;19.71;33.59;99395.88;2195098;80;21299;-73
2021/03/26 13:52:30;;;;;;;52.48;30.62;;;;;;;19.69;33.55;99396.48;2195899;80;21756;-73
2021/03/26 13:55:32;;;;;;;55.58;32.45;;;;;;;19.64;33.41;99392.55;2203446;80;21299;-72
2021/03/26 13:58:34;;;;;;;48.28;29.07;;;;;;;19.62;33.84;99398.02;2168350;81;21291;-72